East Sandwich, Massachusetts
Current Conditions -  °F | °C
As of 3:35 AM on Friday 24 Oct 2014 (Local Time) from KFMH Reporting Station
Light Rain Light Rain  
Wind Chill: 50°   Ceiling: 700
Heat Index: 50°   Visibility: 2mi
Dew Point: 50°   Wind: 13mph
Humidity: 100%   Direction: 340°NNW
Pressure: 29.59"   Gusts: 23mph
Location:  41.74°N, 70.43°W
Report Text: KFMH 240735Z AUTO 34011G20KT 2SM -RA BKN007 OVC010 10/10 A2959 RMK AO2
Loading
Personal Weather Stations






























Interactive Weather Map
Tropical Storm Tracking
New forecast layout! Learn more

10-Day Weather Forecast

Advertisements
Track Severe Weather on mobile